Time;durP1;ratioP1;P1;durP2;ratioP2;P2;SDS_P1;SDS_P2;PMS_P1;PMS_P2;Temp;Humidity;BMP_temperature;BMP_pressure;BME280_temperature;BME280_humidity;BME280_pressure;Samples;Min_cycle;Max_cycle;Signal;HPM_P1;HPM_P2
2023/05/28 00:01:17;;;;;;;;;;;14.10;83.60;;;;;;5016183;28;19913;-72
2023/05/28 00:03:43;;;;;;;;;;;14.10;83.90;;;;;;5012222;28;19913;-71
2023/05/28 00:06:09;;;;;;;;;;;14.10;84.10;;;;;;5020895;28;19959;-71
2023/05/28 00:08:35;;;;;;;;;;;14.00;84.10;;;;;;5013178;28;19948;-71
2023/05/28 00:11:03;;;;;;;;;;;14.00;84.50;;;;;;5020085;28;20410;-71
2023/05/28 00:13:30;;;;;;;;;;;14.00;84.10;;;;;;5016371;28;19917;-71
2023/05/28 00:15:56;;;;;;;;;;;13.90;84.50;;;;;;5026774;28;19905;-71
2023/05/28 00:18:23;;;;;;;;;;;13.90;84.70;;;;;;5021689;28;19928;-71
2023/05/28 00:20:49;;;;;;;;;;;13.90;85.10;;;;;;5020537;28;19924;-71
2023/05/28 00:23:16;;;;;;;;;;;13.90;85.70;;;;;;5033255;28;19921;-71
2023/05/28 00:25:42;;;;;;;;;;;13.90;85.70;;;;;;5022424;28;19928;-71
2023/05/28 00:28:08;;;;;;;;;;;13.80;86.70;;;;;;5023636;28;19905;-71
2023/05/28 00:30:34;;;;;;;;;;;13.80;86.30;;;;;;5039622;28;20586;-71
2023/05/28 00:33:05;;;;;;;;;;;13.80;86.40;;;;;;5019775;28;19912;-71
2023/05/28 00:35:31;;;;;;;;;;;13.80;86.50;;;;;;5025979;28;19905;-71
2023/05/28 00:37:56;;;;;;;;;;;13.80;86.20;;;;;;5023764;28;20051;-71
2023/05/28 00:40:23;;;;;;;;;;;13.80;86.60;;;;;;5023859;28;19909;-71
2023/05/28 00:42:51;;;;;;;;;;;13.80;86.30;;;;;;5019509;28;20059;-71
2023/05/28 00:45:17;;;;;;;;;;;13.80;85.60;;;;;;5023182;28;19905;-71
2023/05/28 00:47:43;;;;;;;;;;;13.70;86.60;;;;;;5024070;28;19909;-71
2023/05/28 00:50:10;;;;;;;;;;;13.70;87.00;;;;;;5024063;28;20297;-71
2023/05/28 00:52:41;;;;;;;;;;;13.70;87.20;;;;;;5024454;28;19908;-74
2023/05/28 00:55:14;;;;;;;;;;;13.70;86.90;;;;;;5033489;28;19911;-74
2023/05/28 00:57:43;;;;;;;;;;;13.70;87.20;;;;;;5038388;28;19905;-74
2023/05/28 01:00:09;;;;;;;;;;;13.70;87.10;;;;;;5035189;28;19948;-74
2023/05/28 01:02:37;;;;;;;;;;;13.70;87.30;;;;;;5024145;28;20075;-74
2023/05/28 01:05:03;;;;;;;;;;;13.70;87.70;;;;;;5022730;28;19988;-74
2023/05/28 01:07:30;;;;;;;;;;;13.70;87.60;;;;;;5019746;28;19995;-74
2023/05/28 01:09:55;;;;;;;;;;;13.70;87.90;;;;;;5019644;28;20345;-74
2023/05/28 01:12:23;;;;;;;;;;;13.70;87.50;;;;;;5039785;28;19952;-74
2023/05/28 01:14:49;;;;;;;;;;;13.60;88.50;;;;;;5020210;28;19916;-73
2023/05/28 01:17:20;;;;;;;;;;;13.50;88.20;;;;;;5019490;28;19913;-74
2023/05/28 01:19:51;;;;;;;;;;;13.50;88.30;;;;;;5019173;28;19917;-74
2023/05/28 01:22:20;;;;;;;;;;;13.50;88.20;;;;;;5017737;28;20007;-73
2023/05/28 01:24:49;;;;;;;;;;;13.50;88.40;;;;;;5029029;28;19993;-75
2023/05/28 01:27:14;;;;;;;;;;;13.60;88.00;;;;;;5035132;28;19909;-74
2023/05/28 01:29:43;;;;;;;;;;;13.60;88.00;;;;;;5024182;28;19916;-74
2023/05/28 01:32:11;;;;;;;;;;;13.60;88.20;;;;;;5021092;28;19916;-74
2023/05/28 01:34:37;;;;;;;;;;;13.60;88.50;;;;;;5018603;28;19994;-74
2023/05/28 01:37:09;;;;;;;;;;;13.50;89.00;;;;;;5021503;28;20344;-75
2023/05/28 01:39:42;;;;;;;;;;;13.50;88.90;;;;;;5033545;28;20623;-74
2023/05/28 01:42:11;;;;;;;;;;;13.50;89.60;;;;;;5019340;28;19905;-74
2023/05/28 01:44:49;;;;;;;;;;;13.40;89.70;;;;;;5022246;28;19909;-74
2023/05/28 01:47:16;;;;;;;;;;;13.40;90.10;;;;;;5038233;28;20017;-75
2023/05/28 01:49:42;;;;;;;;;;;13.40;90.10;;;;;;5019207;28;19912;-73
2023/05/28 01:52:14;;;;;;;;;;;13.30;90.40;;;;;;5019082;28;19956;-74
2023/05/28 01:54:40;;;;;;;;;;;13.30;90.70;;;;;;5021370;28;19940;-75
2023/05/28 01:57:14;;;;;;;;;;;13.30;90.70;;;;;;5019449;28;19952;-74
2023/05/28 01:59:42;;;;;;;;;;;13.20;91.00;;;;;;5023143;28;20003;-74
2023/05/28 02:02:12;;;;;;;;;;;13.20;91.30;;;;;;5034040;28;19912;-74
2023/05/28 02:04:37;;;;;;;;;;;13.10;91.70;;;;;;5021701;28;20000;-79
2023/05/28 02:07:03;;;;;;;;;;;13.10;91.60;;;;;;5034435;28;19980;-74
2023/05/28 02:09:31;;;;;;;;;;;13.10;91.60;;;;;;5023141;28;19954;-74
2023/05/28 02:11:59;;;;;;;;;;;13.00;91.80;;;;;;5018532;28;19905;-74
2023/05/28 02:14:25;;;;;;;;;;;13.00;92.00;;;;;;5018056;28;19927;-73
2023/05/28 02:16:54;;;;;;;;;;;13.00;92.30;;;;;;5021803;28;19909;-75
2023/05/28 02:19:19;;;;;;;;;;;13.00;92.20;;;;;;5023617;28;19909;-74
2023/05/28 02:21:45;;;;;;;;;;;12.90;92.60;;;;;;5017331;28;19920;-75
2023/05/28 02:24:11;;;;;;;;;;;12.90;93.40;;;;;;5018151;28;19920;-75
2023/05/28 02:26:36;;;;;;;;;;;12.80;93.40;;;;;;5018972;28;20270;-75
2023/05/28 02:29:06;;;;;;;;;;;12.80;94.10;;;;;;5030144;28;19992;-74
2023/05/28 02:31:32;;;;;;;;;;;12.70;94.30;;;;;;5018780;28;19916;-74
2023/05/28 02:34:05;;;;;;;;;;;12.70;94.70;;;;;;5022247;28;19967;-74
2023/05/28 02:36:36;;;;;;;;;;;12.70;95.10;;;;;;5016975;28;20024;-74
2023/05/28 02:39:02;;;;;;;;;;;12.70;95.50;;;;;;5018368;28;19905;-74
2023/05/28 02:41:30;;;;;;;;;;;12.70;95.80;;;;;;5018398;28;19913;-74
2023/05/28 02:43:55;;;;;;;;;;;12.70;95.90;;;;;;5021125;28;20834;-75
2023/05/28 02:46:29;;;;;;;;;;;12.70;96.10;;;;;;5016703;28;19909;-74
2023/05/28 02:48:55;;;;;;;;;;;12.70;96.40;;;;;;5021554;28;20281;-74
2023/05/28 02:51:20;;;;;;;;;;;12.70;96.70;;;;;;5018118;28;19999;-75
2023/05/28 02:53:46;;;;;;;;;;;12.60;96.70;;;;;;5037483;28;19909;-75
2023/05/28 02:56:16;;;;;;;;;;;12.60;96.50;;;;;;5021189;28;19932;-75
2023/05/28 02:58:42;;;;;;;;;;;12.60;96.40;;;;;;5022665;28;19905;-75
2023/05/28 03:01:10;;;;;;;;;;;12.60;96.60;;;;;;5026947;28;19909;-74
2023/05/28 03:03:39;;;;;;;;;;;12.50;96.80;;;;;;5035624;28;19920;-75
2023/05/28 03:06:07;;;;;;;;;;;12.50;97.00;;;;;;5022480;28;20425;-74
2023/05/28 03:08:40;;;;;;;;;;;12.50;97.00;;;;;;5033566;28;19927;-74
2023/05/28 03:11:08;;;;;;;;;;;12.60;96.90;;;;;;5012588;28;20020;-74
2023/05/28 03:13:34;;;;;;;;;;;12.50;97.00;;;;;;5018087;28;19912;-75
2023/05/28 03:16:00;;;;;;;;;;;12.50;98.00;;;;;;5018169;28;19905;-75
2023/05/28 03:18:26;;;;;;;;;;;12.50;98.10;;;;;;5017940;28;19912;-75
2023/05/28 03:20:53;;;;;;;;;;;12.50;98.00;;;;;;5038454;28;19905;-75
2023/05/28 03:23:19;;;;;;;;;;;12.50;98.30;;;;;;5019001;28;19966;-75
2023/05/28 03:25:46;;;;;;;;;;;12.50;98.30;;;;;;5016254;28;19917;-74
2023/05/28 03:28:12;;;;;;;;;;;12.50;98.50;;;;;;5016485;28;19948;-75
2023/05/28 03:30:38;;;;;;;;;;;12.50;98.80;;;;;;5039340;28;20341;-75
2023/05/28 03:33:16;;;;;;;;;;;12.50;98.80;;;;;;5020181;28;19905;-74
2023/05/28 03:35:47;;;;;;;;;;;12.50;99.40;;;;;;5024988;28;19928;-74
2023/05/28 03:38:14;;;;;;;;;;;12.50;99.90;;;;;;5017249;28;19988;-75
2023/05/28 03:40:44;;;;;;;;;;;12.60;99.90;;;;;;5032714;28;19915;-75
2023/05/28 03:43:14;;;;;;;;;;;12.60;99.90;;;;;;5016685;28;19943;-74
2023/05/28 03:45:39;;;;;;;;;;;12.60;99.90;;;;;;5017814;28;19944;-75
2023/05/28 03:48:06;;;;;;;;;;;12.70;99.90;;;;;;5046626;28;20366;-74
2023/05/28 03:50:31;;;;;;;;;;;12.70;99.90;;;;;;5040836;28;19953;-75
2023/05/28 03:52:57;;;;;;;;;;;12.80;99.90;;;;;;5037670;28;20072;-74
2023/05/28 03:55:22;;;;;;;;;;;12.80;99.90;;;;;;5021043;28;19992;-74
2023/05/28 03:57:48;;;;;;;;;;;12.90;99.90;;;;;;5021833;28;19960;-74
2023/05/28 04:00:22;;;;;;;;;;;12.90;99.70;;;;;;5019824;28;20026;-75
2023/05/28 04:02:48;;;;;;;;;;;13.00;99.60;;;;;;5017530;28;19913;-75
2023/05/28 04:05:24;;;;;;;;;;;13.10;99.70;;;;;;5021156;28;19943;-75
2023/05/28 04:08:02;;;;;;;;;;;13.20;99.60;;;;;;5021572;28;19905;-75
2023/05/28 04:10:27;;;;;;;;;;;13.30;98.80;;;;;;5020803;28;19932;-75
2023/05/28 04:12:59;;;;;;;;;;;13.40;98.60;;;;;;5036598;28;19905;-74
2023/05/28 04:15:26;;;;;;;;;;;13.50;98.30;;;;;;5019048;28;19905;-75
2023/05/28 04:17:52;;;;;;;;;;;13.60;98.10;;;;;;5019815;28;19909;-74
2023/05/28 04:20:20;;;;;;;;;;;13.70;98.20;;;;;;5020939;28;19912;-76
2023/05/28 04:22:52;;;;;;;;;;;13.80;98.10;;;;;;5016611;28;19967;-75
2023/05/28 04:25:24;;;;;;;;;;;13.90;97.70;;;;;;5025184;28;19921;-74
2023/05/28 04:27:49;;;;;;;;;;;14.00;97.60;;;;;;5023972;28;19909;-75
2023/05/28 04:30:15;;;;;;;;;;;14.20;97.60;;;;;;5023048;28;19920;-75
2023/05/28 04:32:40;;;;;;;;;;;14.30;97.50;;;;;;5023728;28;20000;-75
2023/05/28 04:35:08;;;;;;;;;;;14.40;97.30;;;;;;5021162;28;19905;-74
2023/05/28 04:37:39;;;;;;;;;;;14.50;97.10;;;;;;5016602;28;19948;-74
2023/05/28 04:40:05;;;;;;;;;;;14.60;96.90;;;;;;5017855;28;19932;-75
2023/05/28 04:42:32;;;;;;;;;;;14.80;96.20;;;;;;5019954;28;20341;-75
2023/05/28 04:44:58;;;;;;;;;;;15.00;95.40;;;;;;5024097;28;19913;-75
2023/05/28 04:47:25;;;;;;;;;;;15.10;94.80;;;;;;5020726;28;19955;-74
2023/05/28 04:49:52;;;;;;;;;;;15.30;94.30;;;;;;5020870;28;19912;-74
2023/05/28 04:52:23;;;;;;;;;;;15.20;94.40;;;;;;5035010;28;19916;-74
2023/05/28 04:54:50;;;;;;;;;;;15.00;95.10;;;;;;5019539;28;20469;-74
2023/05/28 04:57:20;;;;;;;;;;;15.10;95.10;;;;;;5034894;28;19913;-74
2023/05/28 04:59:49;;;;;;;;;;;15.20;95.60;;;;;;5026916;28;19913;-74
2023/05/28 05:02:18;;;;;;;;;;;15.40;94.70;;;;;;5024259;28;19951;-74
2023/05/28 05:04:47;;;;;;;;;;;15.70;95.50;;;;;;5017878;28;19913;-75
2023/05/28 05:07:20;;;;;;;;;;;16.00;96.20;;;;;;5034837;28;19995;-74
2023/05/28 05:09:56;;;;;;;;;;;16.00;94.90;;;;;;5019849;28;19913;-74
2023/05/28 05:12:27;;;;;;;;;;;16.30;94.70;;;;;;5018319;28;19905;-75
2023/05/28 05:14:54;;;;;;;;;;;16.50;94.10;;;;;;5021303;28;20239;-76
2023/05/28 05:17:19;;;;;;;;;;;16.70;93.40;;;;;;5033180;28;19908;-75
2023/05/28 05:19:47;;;;;;;;;;;17.00;93.00;;;;;;5019956;28;19928;-75
2023/05/28 05:22:13;;;;;;;;;;;17.10;92.20;;;;;;5023791;28;20015;-74
2023/05/28 05:24:40;;;;;;;;;;;17.30;91.30;;;;;;5015299;28;19913;-75
2023/05/28 05:27:08;;;;;;;;;;;17.30;90.90;;;;;;5019494;28;19905;-75
2023/05/28 05:29:34;;;;;;;;;;;17.50;91.20;;;;;;5018045;28;19912;-75
2023/05/28 05:32:00;;;;;;;;;;;17.60;90.20;;;;;;5023901;28;19936;-75
2023/05/28 05:34:25;;;;;;;;;;;17.80;90.40;;;;;;5015486;28;20361;-75
2023/05/28 05:36:54;;;;;;;;;;;18.00;90.10;;;;;;5018599;28;19905;-75
2023/05/28 05:39:29;;;;;;;;;;;18.10;89.20;;;;;;5020083;28;19963;-75
2023/05/28 05:41:57;;;;;;;;;;;18.20;88.40;;;;;;5018388;28;19909;-75
2023/05/28 05:44:30;;;;;;;;;;;18.40;88.60;;;;;;5038764;28;19963;-75
2023/05/28 05:47:06;;;;;;;;;;;18.60;87.70;;;;;;5018423;28;19909;-75
2023/05/28 05:49:33;;;;;;;;;;;18.90;86.20;;;;;;5034200;28;20501;-75
2023/05/28 05:51:59;;;;;;;;;;;19.20;85.00;;;;;;5018641;28;19920;-75
2023/05/28 05:54:26;;;;;;;;;;;19.60;84.70;;;;;;5033291;28;19909;-75
2023/05/28 05:56:54;;;;;;;;;;;20.30;83.10;;;;;;5033772;28;19905;-75
2023/05/28 05:59:20;;;;;;;;;;;20.80;80.20;;;;;;5029312;28;19911;-75
2023/05/28 06:01:55;;;;;;;;;;;20.30;80.00;;;;;;5019138;28;19916;-75
2023/05/28 06:04:22;;;;;;;;;;;21.20;80.70;;;;;;5018792;28;19909;-78
2023/05/28 06:06:54;;;;;;;;;;;23.10;74.90;;;;;;5021993;28;19985;-78
2023/05/28 06:09:21;;;;;;;;;;;24.70;69.50;;;;;;5014107;28;19955;-78
2023/05/28 06:11:48;;;;;;;;;;;25.30;65.50;;;;;;5018990;28;19979;-77
2023/05/28 06:14:15;;;;;;;;;;;23.80;65.90;;;;;;5023428;28;19919;-75
2023/05/28 06:16:45;;;;;;;;;;;22.10;70.90;;;;;;5034227;28;19938;-75
2023/05/28 06:19:17;;;;;;;;;;;23.20;69.00;;;;;;5040524;28;19909;-75
2023/05/28 06:21:42;;;;;;;;;;;24.40;65.80;;;;;;5018360;28;19952;-75
2023/05/28 06:24:07;;;;;;;;;;;23.10;67.10;;;;;;5018432;28;19912;-74
2023/05/28 06:26:33;;;;;;;;;;;22.60;66.70;;;;;;5040579;28;20020;-74
2023/05/28 06:29:02;;;;;;;;;;;21.50;68.30;;;;;;5018079;28;19913;-74
2023/05/28 06:31:27;;;;;;;;;;;22.70;67.10;;;;;;5018785;28;19924;-75
2023/05/28 06:33:55;;;;;;;;;;;22.80;66.90;;;;;;5021245;28;19908;-75
2023/05/28 06:36:23;;;;;;;;;;;22.50;66.60;;;;;;5019249;28;19916;-75
2023/05/28 06:39:15;;;;;;;;;;;22.20;67.00;;;;;;5017322;28;19916;-75
2023/05/28 06:41:41;;;;;;;;;;;22.80;65.10;;;;;;5031642;28;19988;-75
2023/05/28 06:44:12;;;;;;;;;;;23.00;64.10;;;;;;5013586;28;20417;-77
2023/05/28 06:46:45;;;;;;;;;;;23.90;64.50;;;;;;5022362;28;19909;-78
2023/05/28 06:49:14;;;;;;;;;;;25.00;61.80;;;;;;5016251;28;19905;-78
2023/05/28 06:51:44;;;;;;;;;;;26.60;60.20;;;;;;5017150;28;19905;-78
2023/05/28 06:54:10;;;;;;;;;;;25.50;61.10;;;;;;5017674;28;19928;-78
2023/05/28 06:56:36;;;;;;;;;;;24.90;61.00;;;;;;5021909;28;19913;-77
2023/05/28 06:59:09;;;;;;;;;;;24.30;61.60;;;;;;5020375;28;19931;-78
2023/05/28 07:01:36;;;;;;;;;;;25.00;62.40;;;;;;5018676;28;20004;-79
2023/05/28 07:04:03;;;;;;;;;;;24.70;61.90;;;;;;5022812;28;19913;-78
2023/05/28 07:06:34;;;;;;;;;;;24.00;63.60;;;;;;5022365;28;19921;-77
2023/05/28 07:09:01;;;;;;;;;;;24.10;62.20;;;;;;5014085;28;19955;-77
2023/05/28 07:11:27;;;;;;;;;;;24.20;62.70;;;;;;5018437;28;19912;-77
2023/05/28 07:13:54;;;;;;;;;;;24.70;62.50;;;;;;5032937;28;19931;-78
2023/05/28 07:16:21;;;;;;;;;;;24.30;63.90;;;;;;5037485;28;20506;-77
2023/05/28 07:18:47;;;;;;;;;;;24.20;63.30;;;;;;5036795;28;19905;-78
2023/05/28 07:21:13;;;;;;;;;;;24.50;63.20;;;;;;5037701;28;19916;-77
2023/05/28 07:23:39;;;;;;;;;;;25.30;61.00;;;;;;5032466;28;19920;-76
2023/05/28 07:26:05;;;;;;;;;;;25.50;61.30;;;;;;5022500;28;20289;-79
2023/05/28 07:28:33;;;;;;;;;;;26.40;60.90;;;;;;5016712;28;19984;-75
2023/05/28 07:30:59;;;;;;;;;;;27.80;59.80;;;;;;5022030;28;19913;-78
2023/05/28 07:33:25;;;;;;;;;;;27.00;59.80;;;;;;5038345;28;19905;-78
2023/05/28 07:35:50;;;;;;;;;;;27.40;60.50;;;;;;5026258;28;20365;-76
2023/05/28 07:38:18;;;;;;;;;;;30.30;56.40;;;;;;5031788;28;19905;-75
2023/05/28 07:40:52;;;;;;;;;;;32.20;53.60;;;;;;5025772;28;19960;-77
2023/05/28 07:43:20;;;;;;;;;;;30.60;53.80;;;;;;5021580;28;19952;-76
2023/05/28 07:45:52;;;;;;;;;;;30.90;53.90;;;;;;5029464;28;19913;-78
2023/05/28 07:48:19;;;;;;;;;;;29.70;52.50;;;;;;5047566;28;19920;-80
2023/05/28 07:50:46;;;;;;;;;;;27.70;55.90;;;;;;5025364;28;19912;-78
2023/05/28 07:53:12;;;;;;;;;;;27.90;56.30;;;;;;5021891;28;19940;-78
2023/05/28 07:55:43;;;;;;;;;;;27.90;56.90;;;;;;5020919;28;19963;-78
2023/05/28 07:58:18;;;;;;;;;;;27.20;57.20;;;;;;5024628;28;19905;-78
2023/05/28 08:00:44;;;;;;;;;;;28.10;57.50;;;;;;5036312;28;19933;-78
2023/05/28 08:03:11;;;;;;;;;;;29.20;55.30;;;;;;5036480;28;19963;-75
2023/05/28 08:05:55;;;;;;;;;;;31.10;54.00;;;;;;5025371;28;19905;-78
2023/05/28 08:08:20;;;;;;;;;;;30.50;52.80;;;;;;5039777;28;19959;-78
2023/05/28 08:10:48;;;;;;;;;;;30.30;53.40;;;;;;5021219;28;19917;-77
2023/05/28 08:13:13;;;;;;;;;;;27.10;55.80;;;;;;5045491;28;19916;-78
2023/05/28 08:15:39;;;;;;;;;;;27.20;57.40;;;;;;5020940;28;19909;-77
2023/05/28 08:18:13;;;;;;;;;;;28.90;54.80;;;;;;5029241;28;19904;-78
2023/05/28 08:20:39;;;;;;;;;;;27.30;56.00;;;;;;5019152;28;19933;-78
2023/05/28 08:23:05;;;;;;;;;;;29.10;56.00;;;;;;5017578;28;19919;-80
2023/05/28 08:25:32;;;;;;;;;;;29.70;54.90;;;;;;5024344;28;19921;-79
2023/05/28 08:28:09;;;;;;;;;;;29.20;55.30;;;;;;5020947;28;19992;-78
2023/05/28 08:30:44;;;;;;;;;;;29.70;55.20;;;;;;5032703;28;19988;-78
2023/05/28 08:33:09;;;;;;;;;;;28.80;54.00;;;;;;5035274;28;19909;-78
2023/05/28 08:35:36;;;;;;;;;;;27.90;55.90;;;;;;5021235;28;19927;-79
2023/05/28 08:38:06;;;;;;;;;;;29.50;56.80;;;;;;5020620;28;19960;-78
2023/05/28 08:40:34;;;;;;;;;;;30.70;54.20;;;;;;5031944;28;20006;-78
2023/05/28 08:43:07;;;;;;;;;;;30.80;53.80;;;;;;5040333;28;19912;-78
2023/05/28 08:45:34;;;;;;;;;;;30.40;53.60;;;;;;5027471;28;19948;-78
2023/05/28 08:48:00;;;;;;;;;;;29.50;55.20;;;;;;5017862;28;19982;-78
2023/05/28 08:50:29;;;;;;;;;;;31.60;53.60;;;;;;5024699;28;20393;-76
2023/05/28 08:52:59;;;;;;;;;;;32.90;53.40;;;;;;5038570;28;20356;-78
2023/05/28 08:55:24;;;;;;;;;;;32.80;52.00;;;;;;5018743;28;19913;-77
2023/05/28 08:57:54;;;;;;;;;;;32.50;52.40;;;;;;5031741;28;19909;-78
2023/05/28 09:00:21;;;;;;;;;;;29.70;54.30;;;;;;5024715;28;19909;-73
2023/05/28 09:02:47;;;;;;;;;;;30.90;53.80;;;;;;5018411;28;20051;-73
2023/05/28 09:05:12;;;;;;;;;;;32.20;52.50;;;;;;5018602;28;20512;-75
2023/05/28 09:07:39;;;;;;;;;;;32.30;52.30;;;;;;5042764;28;19909;-74
2023/05/28 09:10:05;;;;;;;;;;;30.90;53.70;;;;;;5017709;28;19944;-74
2023/05/28 09:12:30;;;;;;;;;;;29.40;54.60;;;;;;5018345;28;20298;-74
2023/05/28 09:14:57;;;;;;;;;;;29.80;54.60;;;;;;5018875;28;19991;-75
2023/05/28 09:17:39;;;;;;;;;;;30.60;54.60;;;;;;5017595;28;20253;-75
2023/05/28 09:20:11;;;;;;;;;;;30.80;53.20;;;;;;5024378;28;19913;-74
2023/05/28 09:22:37;;;;;;;;;;;31.40;52.70;;;;;;5023358;28;19909;-73
2023/05/28 09:25:04;;;;;;;;;;;31.10;52.60;;;;;;5018567;28;19920;-73
2023/05/28 09:27:29;;;;;;;;;;;29.50;53.90;;;;;;5020594;28;20357;-73
2023/05/28 09:29:55;;;;;;;;;;;27.30;55.80;;;;;;5023696;28;19963;-74
2023/05/28 09:32:22;;;;;;;;;;;26.60;57.50;;;;;;5019220;28;19908;-74
2023/05/28 09:34:50;;;;;;;;;;;27.00;58.40;;;;;;5022551;28;19913;-74
2023/05/28 09:37:19;;;;;;;;;;;27.50;56.70;;;;;;5035106;28;19913;-74
2023/05/28 09:39:46;;;;;;;;;;;28.10;56.60;;;;;;5017995;28;20024;-74
2023/05/28 09:42:14;;;;;;;;;;;27.00;57.70;;;;;;5019405;28;20479;-74
2023/05/28 09:44:40;;;;;;;;;;;26.30;58.20;;;;;;5025516;28;19971;-75
2023/05/28 09:47:15;;;;;;;;;;;26.30;59.10;;;;;;5020839;28;19928;-74
2023/05/28 09:49:45;;;;;;;;;;;24.90;60.00;;;;;;5021767;28;20230;-74
2023/05/28 09:52:16;;;;;;;;;;;24.70;61.60;;;;;;5027844;28;20358;-74
2023/05/28 09:54:45;;;;;;;;;;;24.80;61.70;;;;;;5018593;28;19927;-74
2023/05/28 09:57:11;;;;;;;;;;;25.90;60.70;;;;;;5018045;28;19909;-74
2023/05/28 09:59:38;;;;;;;;;;;25.90;59.60;;;;;;5019807;28;19905;-74
2023/05/28 10:02:36;;;;;;;;;;;26.30;60.00;;;;;;5017535;28;20350;-75
2023/05/28 10:05:10;;;;;;;;;;;26.90;57.80;;;;;;4956882;28;19914;-74
2023/05/28 10:07:37;;;;;;;;;;;26.90;58.30;;;;;;4959798;28;19937;-75
2023/05/28 10:10:03;;;;;;;;;;;27.20;58.50;;;;;;5019782;28;19901;-75
2023/05/28 10:12:35;;;;;;;;;;;26.60;59.20;;;;;;5023522;28;19999;-75
2023/05/28 10:15:05;;;;;;;;;;;27.00;59.40;;;;;;5017234;28;19955;-75
2023/05/28 10:17:41;;;;;;;;;;;27.10;59.00;;;;;;5074184;27;19916;-73
2023/05/28 10:20:10;;;;;;;;;;;28.00;57.70;;;;;;5044065;28;19932;-72
2023/05/28 10:22:37;;;;;;;;;;;28.10;58.00;;;;;;5027345;28;20647;-72
2023/05/28 10:25:03;;;;;;;;;;;28.60;57.10;;;;;;5041418;28;19917;-73
2023/05/28 10:27:29;;;;;;;;;;;29.10;56.30;;;;;;5032319;28;20003;-74
2023/05/28 10:29:55;;;;;;;;;;;28.70;56.20;;;;;;5038731;28;20735;-74
2023/05/28 10:32:21;;;;;;;;;;;29.40;55.60;;;;;;5035337;28;19909;-72
2023/05/28 10:35:00;;;;;;;;;;;28.90;56.20;;;;;;5033922;28;19916;-73
2023/05/28 10:37:25;;;;;;;;;;;28.40;56.00;;;;;;5040806;28;20413;-78
2023/05/28 10:39:56;;;;;;;;;;;28.30;57.80;;;;;;5043261;28;19999;-75
2023/05/28 10:42:23;;;;;;;;;;;29.10;56.90;;;;;;5032634;28;19909;-72
2023/05/28 10:45:03;;;;;;;;;;;29.80;56.10;;;;;;5039450;28;20646;-73
2023/05/28 10:47:38;;;;;;;;;;;28.60;57.20;;;;;;5036662;28;19936;-73
2023/05/28 10:50:04;;;;;;;;;;;27.50;57.60;;;;;;5043114;28;20235;-72
2023/05/28 10:52:30;;;;;;;;;;;27.90;57.80;;;;;;5059562;28;19948;-72
2023/05/28 10:54:56;;;;;;;;;;;27.90;58.30;;;;;;5032747;28;19948;-72
2023/05/28 10:57:21;;;;;;;;;;;26.60;58.60;;;;;;5036240;28;20484;-72
2023/05/28 10:59:51;;;;;;;;;;;25.30;60.60;;;;;;5030329;28;19913;-72
2023/05/28 11:02:25;;;;;;;;;;;24.70;63.10;;;;;;5036240;28;19917;-72
2023/05/28 11:04:55;;;;;;;;;;;24.10;63.30;;;;;;5032541;28;19967;-72
2023/05/28 11:07:22;;;;;;;;;;;23.90;63.50;;;;;;5037548;28;19917;-72
2023/05/28 11:09:50;;;;;;;;;;;23.70;65.20;;;;;;5033860;28;19916;-72
2023/05/28 11:12:19;;;;;;;;;;;23.20;66.60;;;;;;5040283;28;19921;-72
2023/05/28 11:14:44;;;;;;;;;;;22.70;66.40;;;;;;5033478;28;19924;-71
2023/05/28 11:17:10;;;;;;;;;;;23.00;66.50;;;;;;5052435;28;19925;-71
2023/05/28 11:19:46;;;;;;;;;;;23.20;67.00;;;;;;5033322;28;20357;-71
2023/05/28 11:22:13;;;;;;;;;;;23.20;67.70;;;;;;5052922;28;19916;-71
2023/05/28 11:24:58;;;;;;;;;;;23.20;68.10;;;;;;5037064;28;20419;-71
2023/05/28 11:27:24;;;;;;;;;;;23.30;66.90;;;;;;5054104;28;19913;-71
2023/05/28 11:29:51;;;;;;;;;;;23.50;66.90;;;;;;5036373;28;19940;-72
2023/05/28 11:32:20;;;;;;;;;;;23.20;65.90;;;;;;5042591;28;19913;-72
2023/05/28 11:34:47;;;;;;;;;;;23.40;66.90;;;;;;5043200;28;19920;-71
2023/05/28 11:37:13;;;;;;;;;;;23.60;66.90;;;;;;5038023;28;19920;-72
2023/05/28 11:39:47;;;;;;;;;;;23.50;66.70;;;;;;5022772;28;19913;-72
2023/05/28 11:42:12;;;;;;;;;;;23.70;67.00;;;;;;5044008;28;19948;-72
2023/05/28 11:44:42;;;;;;;;;;;23.70;65.40;;;;;;5041248;28;19952;-72
2023/05/28 11:47:09;;;;;;;;;;;24.30;65.90;;;;;;5039072;28;19916;-72
2023/05/28 11:49:36;;;;;;;;;;;24.80;63.70;;;;;;5037295;28;19939;-72
2023/05/28 11:52:02;;;;;;;;;;;24.50;64.10;;;;;;5036587;28;20285;-72
2023/05/28 11:54:27;;;;;;;;;;;24.00;65.10;;;;;;5022161;28;19917;-72
2023/05/28 11:56:53;;;;;;;;;;;23.50;66.70;;;;;;5045520;28;20749;-72
2023/05/28 11:59:25;;;;;;;;;;;23.90;66.80;;;;;;5024318;28;19935;-72
2023/05/28 12:01:51;;;;;;;;;;;24.10;65.60;;;;;;5038052;28;19909;-73
2023/05/28 12:04:21;;;;;;;;;;;24.10;65.40;;;;;;5038122;28;20403;-72
2023/05/28 12:06:54;;;;;;;;;;;24.20;65.80;;;;;;5039441;28;19908;-72
2023/05/28 12:09:21;;;;;;;;;;;24.10;65.70;;;;;;5023423;28;20376;-72
2023/05/28 12:12:09;;;;;;;;;;;24.10;65.70;;;;;;5043771;28;20012;-73
2023/05/28 12:14:35;;;;;;;;;;;24.20;64.90;;;;;;5039841;28;19912;-72
2023/05/28 12:17:10;;;;;;;;;;;24.30;64.40;;;;;;5038839;28;19927;-72
2023/05/28 12:19:36;;;;;;;;;;;24.40;64.80;;;;;;5029443;28;20221;-72
2023/05/28 12:22:04;;;;;;;;;;;24.20;64.40;;;;;;5048021;28;19916;-72
2023/05/28 12:24:32;;;;;;;;;;;24.20;65.70;;;;;;5020302;28;19908;-73
2023/05/28 12:26:57;;;;;;;;;;;24.40;64.60;;;;;;5051601;28;19917;-73
2023/05/28 12:29:23;;;;;;;;;;;23.80;64.80;;;;;;5035982;28;20858;-72
2023/05/28 12:31:58;;;;;;;;;;;24.30;64.70;;;;;;5043357;28;19916;-73
2023/05/28 12:34:24;;;;;;;;;;;24.60;63.20;;;;;;5038880;28;20997;-72
2023/05/28 12:36:50;;;;;;;;;;;24.20;64.20;;;;;;5028030;28;20004;-72
2023/05/28 12:39:16;;;;;;;;;;;23.70;64.40;;;;;;5035291;28;19913;-72
2023/05/28 12:41:42;;;;;;;;;;;23.50;64.80;;;;;;5037466;28;20250;-72
2023/05/28 12:44:12;;;;;;;;;;;23.80;65.40;;;;;;5026560;28;20332;-72
2023/05/28 12:46:38;;;;;;;;;;;24.00;65.30;;;;;;5039426;28;20012;-72
2023/05/28 12:49:03;;;;;;;;;;;24.40;65.30;;;;;;5039319;28;20365;-72
2023/05/28 12:51:30;;;;;;;;;;;24.80;64.50;;;;;;5020307;28;19923;-72
2023/05/28 12:53:56;;;;;;;;;;;24.70;62.90;;;;;;5036261;28;20373;-73
2023/05/28 12:56:22;;;;;;;;;;;24.10;64.90;;;;;;5024135;28;19920;-72
2023/05/28 12:58:50;;;;;;;;;;;24.00;63.90;;;;;;5033435;28;19913;-72
2023/05/28 13:01:17;;;;;;;;;;;24.00;64.30;;;;;;5038734;28;19917;-72
2023/05/28 13:03:42;;;;;;;;;;;24.00;65.00;;;;;;5017980;28;20325;-72
2023/05/28 13:06:08;;;;;;;;;;;24.00;64.50;;;;;;5042134;28;19912;-72
2023/05/28 13:08:33;;;;;;;;;;;24.50;65.30;;;;;;5037807;28;20364;-72
2023/05/28 13:10:59;;;;;;;;;;;25.10;64.80;;;;;;5033053;28;19921;-72
2023/05/28 13:13:24;;;;;;;;;;;25.10;64.00;;;;;;5047766;28;20513;-72
2023/05/28 13:15:50;;;;;;;;;;;25.20;64.60;;;;;;5038667;28;20016;-72
2023/05/28 13:18:16;;;;;;;;;;;25.20;63.30;;;;;;5020157;28;19924;-72
2023/05/28 13:20:41;;;;;;;;;;;25.00;63.90;;;;;;5037847;28;19944;-72
2023/05/28 13:23:08;;;;;;;;;;;24.50;64.80;;;;;;5020889;28;19909;-73
2023/05/28 13:25:37;;;;;;;;;;;24.10;65.70;;;;;;5041725;28;19915;-74
2023/05/28 13:28:03;;;;;;;;;;;24.20;66.50;;;;;;5048566;28;19916;-76
2023/05/28 13:30:30;;;;;;;;;;;24.70;64.10;;;;;;5019371;28;20008;-73
2023/05/28 13:32:58;;;;;;;;;;;24.80;64.00;;;;;;5043762;28;19963;-73
2023/05/28 13:35:25;;;;;;;;;;;24.80;65.40;;;;;;5049723;28;19939;-73
2023/05/28 13:37:52;;;;;;;;;;;24.80;64.70;;;;;;5021415;28;19920;-72
2023/05/28 13:40:20;;;;;;;;;;;24.80;64.50;;;;;;5037655;28;19908;-73
2023/05/28 13:42:48;;;;;;;;;;;25.00;64.20;;;;;;5036933;28;19956;-75
2023/05/28 13:45:21;;;;;;;;;;;24.70;64.40;;;;;;5021032;28;19923;-77
2023/05/28 13:47:47;;;;;;;;;;;24.60;64.30;;;;;;5021234;28;19908;-71
2023/05/28 13:50:14;;;;;;;;;;;24.30;65.10;;;;;;5037022;28;19963;-71
2023/05/28 13:52:43;;;;;;;;;;;24.30;65.70;;;;;;5018493;28;20037;-72
2023/05/28 13:55:10;;;;;;;;;;;24.40;65.90;;;;;;5037916;28;19982;-73
2023/05/28 13:57:37;;;;;;;;;;;24.40;65.90;;;;;;5038100;28;19939;-73
2023/05/28 14:00:06;;;;;;;;;;;24.70;65.70;;;;;;5016718;28;19991;-73
2023/05/28 14:02:33;;;;;;;;;;;24.60;65.10;;;;;;5036616;28;19913;-73
2023/05/28 14:05:03;;;;;;;;;;;24.50;66.00;;;;;;5046789;28;19917;-72
2023/05/28 14:07:31;;;;;;;;;;;24.50;66.60;;;;;;5020434;28;19917;-74
2023/05/28 14:10:00;;;;;;;;;;;24.70;66.20;;;;;;5048265;28;20059;-74
2023/05/28 14:12:26;;;;;;;;;;;24.10;66.60;;;;;;5019402;28;19958;-73
2023/05/28 14:14:51;;;;;;;;;;;23.70;67.80;;;;;;5037376;28;20272;-73
2023/05/28 14:17:17;;;;;;;;;;;23.70;67.20;;;;;;5041570;28;20523;-72
2023/05/28 14:19:42;;;;;;;;;;;23.60;67.90;;;;;;5020076;28;19915;-74
2023/05/28 14:22:08;;;;;;;;;;;23.80;67.50;;;;;;5032366;28;20296;-74